createdAt,value
2022-11-18T00:00:48.493Z,0.89
2022-11-18T00:01:51.711Z,1.30
2022-11-18T00:02:54.041Z,1.52
2022-11-18T00:03:57.368Z,2.37
2022-11-18T00:04:59.549Z,2.49
2022-11-18T00:06:03.158Z,1.49
2022-11-18T00:07:05.582Z,1.37
2022-11-18T00:08:09.258Z,2.24
2022-11-18T00:09:12.555Z,2.32
2022-11-18T00:10:14.962Z,2.73
2022-11-18T00:11:45.864Z,2.33
2022-11-18T00:13:06.790Z,1.89
2022-11-18T00:14:21.385Z,3.31
2022-11-18T00:15:28.959Z,3.37
2022-11-18T00:16:36.479Z,1.89
2022-11-18T00:17:38.741Z,1.47
2022-11-18T00:18:42.009Z,1.17
2022-11-18T00:19:44.360Z,1.25
2022-11-18T00:20:47.606Z,1.60
2022-11-18T00:21:49.974Z,0.94
2022-11-18T00:22:53.179Z,0.97
2022-11-18T00:23:55.425Z,0.98
2022-11-18T00:24:58.823Z,0.85
2022-11-18T00:26:06.664Z,0.81
2022-11-18T00:27:09.964Z,1.42
2022-11-18T00:28:12.332Z,1.66
2022-11-18T00:29:16.690Z,1.72
2022-11-18T00:30:19.391Z,1.79
2022-11-18T00:31:22.732Z,2.05
2022-11-18T00:32:26.341Z,1.86
2022-11-18T00:33:29.807Z,1.27
2022-11-18T00:34:32.135Z,1.09
2022-11-18T00:35:37.292Z,1.25
2022-11-18T00:36:39.720Z,1.29
2022-11-18T00:37:43.369Z,1.29
2022-11-18T00:38:45.844Z,1.16
2022-11-18T00:39:49.114Z,1.33
2022-11-18T00:40:59.398Z,1.08
2022-11-18T00:42:20.157Z,2.91
2022-11-18T00:43:23.451Z,2.42
2022-11-18T00:44:25.939Z,1.13
2022-11-18T00:45:29.260Z,0.78
2022-11-18T00:46:31.425Z,0.98
2022-11-18T00:47:36.148Z,1.09
2022-11-18T00:48:39.437Z,1.37
2022-11-18T00:49:42.720Z,1.44
2022-11-18T00:50:44.932Z,1.58
2022-11-18T00:51:48.210Z,1.63
2022-11-18T00:52:50.443Z,1.35
2022-11-18T00:53:54.908Z,1.05
2022-11-18T00:54:57.239Z,0.75
2022-11-18T00:56:00.744Z,0.73
2022-11-18T00:57:04.200Z,0.90
2022-11-18T00:58:07.586Z,1.62
2022-11-18T00:59:09.847Z,1.22
2022-11-18T01:00:13.811Z,1.15
2022-11-18T01:01:27.570Z,0.97
2022-11-18T01:02:30.806Z,0.78
2022-11-18T01:03:34.429Z,1.30
2022-11-18T01:04:37.718Z,2.13
2022-11-18T01:05:40.901Z,1.44
2022-11-18T01:06:47.718Z,1.11
2022-11-18T01:07:50.096Z,0.88
2022-11-18T01:08:53.831Z,0.74
2022-11-18T01:09:57.333Z,0.99
2022-11-18T01:11:20.634Z,1.08
2022-11-18T01:12:41.750Z,0.84
2022-11-18T01:13:44.078Z,1.06
2022-11-18T01:14:46.329Z,0.77
2022-11-18T01:15:52.111Z,0.91
2022-11-18T01:16:57.400Z,1.38
2022-11-18T01:18:00.578Z,1.18
2022-11-18T01:19:04.275Z,0.92
2022-11-18T01:20:08.481Z,1.07
2022-11-18T01:21:10.865Z,1.08
2022-11-18T01:22:14.160Z,0.86
2022-11-18T01:23:17.844Z,0.91
2022-11-18T01:24:21.144Z,0.90
2022-11-18T01:25:23.552Z,1.02
2022-11-18T01:26:29.288Z,1.88
2022-11-18T01:27:32.027Z,1.23
2022-11-18T01:28:35.531Z,0.95
2022-11-18T01:29:40.309Z,1.34
2022-11-18T01:30:44.429Z,0.97
2022-11-18T01:32:17.427Z,0.86
2022-11-18T01:33:15.369Z,1.37
2022-11-18T01:34:19.212Z,2.08
2022-11-18T01:35:22.548Z,1.71
2022-11-18T01:36:27.557Z,1.05
2022-11-18T01:37:32.134Z,1.44
2022-11-18T01:38:34.416Z,1.68
2022-11-18T01:39:38.969Z,1.09
2022-11-18T01:40:42.076Z,0.98
2022-11-18T01:41:47.563Z,0.75
2022-11-18T01:42:50.802Z,0.68
2022-11-18T01:43:56.477Z,0.83
2022-11-18T01:45:09.825Z,1.08
2022-11-18T01:46:12.410Z,1.45
2022-11-18T01:47:21.785Z,1.05
2022-11-18T01:48:29.909Z,0.83
2022-11-18T01:49:33.709Z,0.78
2022-11-18T01:50:42.773Z,0.88
2022-11-18T01:51:54.195Z,1.37
2022-11-18T01:53:04.064Z,1.08
2022-11-18T01:54:11.901Z,0.87
2022-11-18T01:55:20.877Z,1.46
2022-11-18T01:56:26.732Z,1.15
2022-11-18T01:57:32.504Z,0.94
2022-11-18T01:58:41.281Z,0.91
2022-11-18T01:59:49.731Z,1.53
2022-11-18T02:00:52.858Z,1.69
2022-11-18T02:01:59.630Z,1.08
2022-11-18T02:03:04.101Z,1.34
2022-11-18T02:04:08.926Z,1.32
2022-11-18T02:05:13.563Z,1.24
2022-11-18T02:06:20.998Z,1.04
2022-11-18T02:07:24.080Z,0.94
2022-11-18T02:08:29.202Z,1.61
2022-11-18T02:09:31.390Z,1.87
2022-11-18T02:10:34.806Z,2.19
2022-11-18T02:11:54.084Z,1.80
2022-11-18T02:12:59.133Z,1.57
2022-11-18T02:14:03.942Z,1.73
2022-11-18T02:15:08.372Z,2.45
2022-11-18T02:16:20.615Z,1.39
2022-11-18T02:17:39.108Z,1.16
2022-11-18T02:18:54.259Z,1.09
2022-11-18T02:20:28.205Z,1.13
2022-11-18T02:21:48.997Z,1.26
2022-11-18T02:23:23.528Z,1.23
2022-11-18T02:24:45.269Z,1.77
2022-11-18T02:26:10.670Z,1.26
2022-11-18T02:27:46.443Z,0.86
2022-11-18T02:29:04.583Z,1.15
2022-11-18T02:30:10.960Z,0.83
2022-11-18T02:31:20.964Z,0.86
2022-11-18T02:32:30.855Z,0.74
2022-11-18T02:33:43.140Z,0.76
2022-11-18T02:34:53.901Z,0.97
2022-11-18T02:36:02.927Z,0.80
2022-11-18T02:37:14.380Z,0.71
2022-11-18T02:38:24.891Z,0.90
2022-11-18T02:39:36.023Z,0.83
2022-11-18T02:40:44.200Z,0.92
2022-11-18T02:41:52.726Z,1.33
2022-11-18T02:43:02.922Z,1.81
2022-11-18T02:44:13.439Z,2.52
2022-11-18T02:45:20.240Z,2.15
2022-11-18T02:46:28.694Z,1.51
2022-11-18T02:47:35.909Z,0.86
2022-11-18T02:48:46.238Z,0.77
2022-11-18T02:49:55.686Z,0.93
2022-11-18T02:51:00.016Z,1.20
2022-11-18T02:52:06.019Z,0.83
2022-11-18T02:53:13.606Z,0.65
2022-11-18T02:54:21.497Z,0.58
2022-11-18T02:55:28.164Z,0.64
2022-11-18T02:56:33.432Z,0.69
2022-11-18T02:57:38.224Z,0.92
2022-11-18T02:58:41.534Z,0.69
2022-11-18T02:59:45.248Z,0.76
2022-11-18T03:00:55.567Z,0.73
2022-11-18T03:01:58.706Z,0.84
2022-11-18T03:03:02.570Z,1.22
2022-11-18T03:04:05.090Z,1.21
2022-11-18T03:05:18.338Z,1.65
2022-11-18T03:06:32.082Z,1.22
2022-11-18T03:07:41.823Z,0.68
2022-11-18T03:08:50.603Z,0.66
2022-11-18T03:09:55.549Z,0.85
2022-11-18T03:11:11.171Z,0.73
2022-11-18T03:12:25.692Z,0.87
2022-11-18T03:13:39.840Z,1.05
2022-11-18T03:14:53.604Z,0.82
2022-11-18T03:16:03.107Z,0.88
2022-11-18T03:17:14.800Z,0.96
2022-11-18T03:18:25.151Z,1.04
2022-11-18T03:19:41.977Z,1.10
2022-11-18T03:20:53.376Z,0.87
2022-11-18T03:22:09.292Z,0.66
2022-11-18T03:23:22.130Z,0.57
2022-11-18T03:24:30.630Z,0.98
2022-11-18T03:25:41.448Z,1.28
2022-11-18T03:26:50.936Z,0.93
2022-11-18T03:28:01.834Z,0.58
2022-11-18T03:29:10.123Z,0.46
2022-11-18T03:30:20.744Z,0.88
2022-11-18T03:31:30.401Z,0.82
2022-11-18T03:32:39.743Z,0.98
2022-11-18T03:33:48.307Z,0.92
2022-11-18T03:34:58.376Z,0.79
2022-11-18T03:36:06.917Z,0.50
2022-11-18T03:37:15.729Z,0.56
2022-11-18T03:38:24.078Z,0.54
2022-11-18T03:39:31.686Z,0.62
2022-11-18T03:40:38.889Z,1.03
2022-11-18T03:41:52.674Z,0.96
2022-11-18T03:43:01.693Z,1.08
2022-11-18T03:44:12.596Z,0.93
2022-11-18T03:45:22.535Z,0.96
2022-11-18T03:46:32.965Z,0.99
2022-11-18T03:47:41.314Z,1.00
2022-11-18T03:48:50.452Z,1.24
2022-11-18T03:49:58.076Z,1.17
2022-11-18T03:51:04.759Z,1.00
2022-11-18T03:52:14.086Z,1.04
2022-11-18T03:53:21.318Z,1.13
2022-11-18T03:54:28.619Z,0.83
2022-11-18T03:55:38.366Z,0.64
2022-11-18T03:56:47.753Z,1.14
2022-11-18T03:58:01.329Z,0.92
2022-11-18T03:59:12.876Z,1.12
2022-11-18T04:00:20.423Z,1.18
2022-11-18T04:01:30.039Z,0.67
2022-11-18T04:02:33.451Z,0.89
2022-11-18T04:03:36.247Z,1.92
2022-11-18T04:04:40.661Z,1.47
2022-11-18T04:05:44.569Z,1.56
2022-11-18T04:06:52.694Z,1.18
2022-11-18T04:07:59.635Z,1.65
2022-11-18T04:09:10.179Z,1.88
2022-11-18T04:10:16.832Z,1.10
2022-11-18T04:11:45.499Z,1.36
2022-11-18T04:12:59.485Z,0.96
2022-11-18T04:14:07.520Z,1.12
2022-11-18T04:15:12.108Z,1.11
2022-11-18T04:16:16.794Z,0.92
2022-11-18T04:17:27.790Z,0.78
2022-11-18T04:18:29.990Z,0.89
2022-11-18T04:19:33.176Z,0.95
2022-11-18T04:20:37.611Z,1.02
2022-11-18T04:21:41.072Z,1.16
2022-11-18T04:22:43.341Z,1.09
2022-11-18T04:23:46.533Z,1.07
2022-11-18T04:24:48.820Z,1.03
2022-11-18T04:25:52.376Z,1.00
2022-11-18T04:26:54.754Z,1.04
2022-11-18T04:27:58.321Z,1.18
2022-11-18T04:29:00.758Z,1.13
2022-11-18T04:30:04.319Z,1.34
2022-11-18T04:31:06.664Z,1.90
2022-11-18T04:32:11.269Z,1.45
2022-11-18T04:33:13.455Z,1.37
2022-11-18T04:34:16.924Z,1.91
2022-11-18T04:35:20.439Z,1.63
2022-11-18T04:36:22.637Z,1.46
2022-11-18T04:37:26.547Z,1.23
2022-11-18T04:38:28.783Z,1.06
2022-11-18T04:39:32.118Z,1.06
2022-11-18T04:40:34.436Z,0.91
2022-11-18T04:41:55.299Z,0.73
2022-11-18T04:42:58.475Z,0.76
2022-11-18T04:44:13.167Z,1.11
2022-11-18T04:45:16.868Z,1.29
2022-11-18T04:46:21.580Z,1.16
2022-11-18T04:47:26.758Z,1.12
2022-11-18T04:48:29.107Z,1.09
2022-11-18T04:49:33.181Z,1.04
2022-11-18T04:50:35.379Z,0.92
2022-11-18T04:51:38.540Z,1.25
2022-11-18T04:52:41.893Z,1.23
2022-11-18T04:53:44.188Z,1.22
2022-11-18T04:54:47.894Z,1.40
2022-11-18T04:55:52.079Z,1.31
2022-11-18T04:56:56.358Z,1.15
2022-11-18T04:57:58.555Z,1.18
2022-11-18T04:59:02.761Z,1.08
2022-11-18T05:00:06.470Z,1.68
2022-11-18T05:01:09.958Z,1.63
2022-11-18T05:02:12.811Z,1.57
2022-11-18T05:03:17.988Z,1.59
2022-11-18T05:04:21.986Z,1.50
2022-11-18T05:05:30.432Z,1.36
2022-11-18T05:06:36.243Z,2.17
2022-11-18T05:07:39.493Z,2.85
2022-11-18T05:08:41.813Z,2.42
2022-11-18T05:09:44.967Z,1.71
2022-11-18T05:10:47.143Z,1.60
2022-11-18T05:13:24.414Z,1.16
2022-11-18T05:14:28.178Z,1.22
2022-11-18T05:15:31.351Z,1.50
2022-11-18T05:16:33.602Z,1.48
2022-11-18T05:17:36.892Z,1.53
2022-11-18T05:18:40.426Z,2.45
2022-11-18T05:19:43.477Z,2.12
2022-11-18T05:20:45.610Z,1.63
2022-11-18T05:21:48.766Z,1.31
2022-11-18T05:22:51.881Z,1.48
2022-11-18T05:23:54.057Z,1.45
2022-11-18T05:24:57.182Z,1.62
2022-11-18T05:26:03.641Z,1.78
2022-11-18T05:27:09.552Z,1.20
2022-11-18T05:28:11.638Z,1.23
2022-11-18T05:29:15.039Z,1.29
2022-11-18T05:30:18.555Z,1.24
2022-11-18T05:31:20.674Z,1.41
2022-11-18T05:32:23.837Z,1.67
2022-11-18T05:33:26.022Z,1.69
2022-11-18T05:34:30.591Z,2.00
2022-11-18T05:35:32.728Z,1.82
2022-11-18T05:36:35.909Z,1.83
2022-11-18T05:37:38.060Z,1.57
2022-11-18T05:38:41.938Z,1.78
2022-11-18T05:39:44.203Z,1.67
2022-11-18T05:40:47.837Z,1.59
2022-11-18T05:42:08.517Z,2.32
2022-11-18T05:43:13.821Z,2.04
2022-11-18T05:44:16.185Z,1.86
2022-11-18T05:45:20.532Z,1.94
2022-11-18T05:46:22.704Z,1.74
2022-11-18T05:47:25.981Z,1.69
2022-11-18T05:48:28.774Z,1.79
2022-11-18T05:49:33.261Z,1.96
2022-11-18T05:50:38.943Z,1.71
2022-11-18T05:51:42.089Z,1.81
2022-11-18T05:52:44.196Z,1.84
2022-11-18T05:53:48.594Z,1.92
2022-11-18T05:54:51.682Z,2.30
2022-11-18T05:56:01.583Z,2.03
2022-11-18T05:57:03.792Z,2.59
2022-11-18T05:58:06.967Z,2.98
2022-11-18T05:59:09.195Z,4.17
2022-11-18T06:00:13.879Z,3.91
2022-11-18T06:01:22.833Z,2.87
2022-11-18T06:02:26.306Z,2.26
2022-11-18T06:03:34.445Z,2.48
2022-11-18T06:04:45.054Z,2.86
2022-11-18T06:05:48.845Z,3.39
2022-11-18T06:06:55.610Z,2.89
2022-11-18T06:07:58.770Z,6.70
2022-11-18T06:09:06.262Z,4.39
2022-11-18T06:10:12.707Z,3.23
2022-11-18T06:11:19.977Z,2.61
2022-11-18T06:12:29.103Z,2.89
2022-11-18T06:13:39.835Z,3.19
2022-11-18T06:14:46.884Z,2.91
2022-11-18T06:15:49.469Z,5.37
2022-11-18T06:16:59.593Z,3.64
2022-11-18T06:18:08.255Z,3.00
2022-11-18T06:19:11.924Z,2.44
2022-11-18T06:20:18.412Z,2.88
2022-11-18T06:21:22.337Z,2.91
2022-11-18T06:22:24.830Z,4.22
2022-11-18T06:23:29.923Z,3.82
2022-11-18T06:24:32.661Z,3.56
2022-11-18T06:25:41.238Z,3.62
2022-11-18T06:26:44.575Z,3.22
2022-11-18T06:27:50.073Z,9.30
2022-11-18T06:28:52.275Z,6.71
2022-11-18T06:29:55.377Z,4.55
2022-11-18T06:30:57.499Z,4.09
2022-11-18T06:32:00.711Z,4.30
2022-11-18T06:33:02.872Z,4.29
2022-11-18T06:34:06.041Z,3.43
2022-11-18T06:35:08.909Z,3.06
2022-11-18T06:36:14.044Z,3.11
2022-11-18T06:37:17.909Z,3.46
2022-11-18T06:38:21.022Z,2.91
2022-11-18T06:39:23.207Z,2.93
2022-11-18T06:40:29.331Z,3.13
2022-11-18T06:41:35.753Z,3.38
2022-11-18T06:42:56.188Z,3.99
2022-11-18T06:43:59.404Z,3.38
2022-11-18T06:45:02.227Z,6.27
2022-11-18T06:46:25.809Z,4.84
2022-11-18T06:47:29.041Z,5.63
2022-11-18T06:48:32.305Z,4.57
2022-11-18T06:49:35.459Z,3.29
2022-11-18T06:50:37.652Z,4.08
2022-11-18T06:51:42.315Z,4.16
2022-11-18T06:52:44.520Z,2.84
2022-11-18T06:53:47.666Z,2.67
2022-11-18T06:54:50.753Z,3.43
2022-11-18T06:55:52.873Z,4.54
2022-11-18T06:56:55.959Z,4.98
2022-11-18T06:57:58.140Z,3.92
2022-11-18T06:59:01.447Z,4.00
2022-11-18T07:00:04.366Z,3.52
2022-11-18T07:01:12.256Z,3.82
2022-11-18T07:02:15.503Z,4.56
2022-11-18T07:03:17.644Z,4.61
2022-11-18T07:04:21.157Z,4.64
2022-11-18T07:05:23.310Z,3.53
2022-11-18T07:06:28.574Z,3.98
2022-11-18T07:07:38.947Z,4.30
2022-11-18T07:08:46.202Z,3.89
2022-11-18T07:09:49.447Z,4.17
2022-11-18T07:10:52.866Z,4.88
2022-11-18T07:11:56.011Z,4.79
2022-11-18T07:12:58.113Z,3.94
2022-11-18T07:14:01.362Z,3.99
2022-11-18T07:15:04.877Z,3.65
2022-11-18T07:16:10.901Z,3.45
2022-11-18T07:17:14.063Z,3.59
2022-11-18T07:18:16.206Z,3.84
2022-11-18T07:19:19.728Z,4.28
2022-11-18T07:20:22.090Z,3.72
2022-11-18T07:21:27.614Z,4.11
2022-11-18T07:22:32.053Z,4.52
2022-11-18T07:23:35.317Z,4.02
2022-11-18T07:24:38.951Z,4.50
2022-11-18T07:25:45.138Z,4.16
2022-11-18T07:26:48.572Z,3.63
2022-11-18T07:27:50.707Z,3.25
2022-11-18T07:28:55.364Z,4.62
2022-11-18T07:29:57.460Z,4.76
2022-11-18T07:31:04.472Z,12.77
2022-11-18T07:32:07.453Z,10.44
2022-11-18T07:33:10.531Z,5.95
2022-11-18T07:34:14.188Z,5.19
2022-11-18T07:35:18.416Z,3.95
2022-11-18T07:36:23.340Z,3.72
2022-11-18T07:37:25.510Z,4.88
2022-11-18T07:38:30.059Z,4.81
2022-11-18T07:39:32.341Z,4.08
2022-11-18T07:40:35.560Z,3.52
2022-11-18T07:41:41.570Z,5.83
2022-11-18T07:42:43.809Z,9.11
2022-11-18T07:43:47.939Z,8.49
2022-11-18T07:44:50.059Z,13.53
2022-11-18T07:45:53.256Z,15.97
2022-11-18T07:46:55.476Z,12.64
2022-11-18T07:47:58.595Z,11.28
2022-11-18T07:49:03.745Z,9.43
2022-11-18T07:50:06.719Z,9.75
2022-11-18T07:51:10.041Z,14.84
2022-11-18T07:52:12.199Z,16.87
2022-11-18T07:53:15.317Z,9.43
2022-11-18T07:54:19.012Z,11.22
2022-11-18T07:55:22.190Z,10.06
2022-11-18T07:56:26.103Z,7.40
2022-11-18T07:57:28.251Z,6.95
2022-11-18T07:58:31.886Z,5.41
2022-11-18T07:59:35.034Z,5.05
2022-11-18T08:00:37.107Z,4.45
2022-11-18T08:01:40.309Z,6.01
2022-11-18T08:02:43.804Z,6.69
2022-11-18T08:03:47.951Z,4.11
2022-11-18T08:04:50.125Z,8.54
2022-11-18T08:05:53.215Z,7.08
2022-11-18T08:06:56.389Z,5.14
2022-11-18T08:07:58.628Z,6.33
2022-11-18T08:09:01.859Z,6.22
2022-11-18T08:10:06.997Z,6.80
2022-11-18T08:11:12.026Z,3.70
2022-11-18T08:12:15.348Z,3.87
2022-11-18T08:13:17.460Z,4.03
2022-11-18T08:14:21.982Z,3.83
2022-11-18T08:15:25.261Z,3.52
2022-11-18T08:16:27.501Z,4.18
2022-11-18T08:17:30.663Z,4.47
2022-11-18T08:18:33.475Z,3.38
2022-11-18T08:19:36.649Z,4.76
2022-11-18T08:20:38.759Z,6.32
2022-11-18T08:21:41.957Z,3.95
2022-11-18T08:22:45.105Z,4.78
2022-11-18T08:23:52.030Z,5.23
2022-11-18T08:24:55.194Z,5.16
2022-11-18T08:26:07.098Z,6.79
2022-11-18T08:27:10.213Z,4.76
2022-11-18T08:28:14.007Z,7.07
2022-11-18T08:29:23.381Z,5.99
2022-11-18T08:30:26.980Z,5.37
2022-11-18T08:31:31.577Z,5.24
2022-11-18T08:32:33.746Z,4.13
2022-11-18T08:33:36.881Z,4.24
2022-11-18T08:34:40.013Z,5.34
2022-11-18T08:35:42.165Z,4.98
2022-11-18T08:36:45.306Z,4.64
2022-11-18T08:37:47.419Z,4.38
2022-11-18T08:38:50.663Z,6.25
2022-11-18T08:39:52.956Z,5.84
2022-11-18T08:40:56.102Z,5.45
2022-11-18T08:42:00.837Z,7.84
2022-11-18T08:43:03.136Z,8.60
2022-11-18T08:44:08.250Z,9.48
2022-11-18T08:45:11.885Z,9.32
2022-11-18T08:46:14.018Z,6.90
2022-11-18T08:47:17.126Z,8.97
2022-11-18T08:48:19.267Z,7.82
2022-11-18T08:49:22.365Z,6.12
2022-11-18T08:50:24.542Z,6.23
2022-11-18T08:51:28.587Z,7.72
2022-11-18T08:52:30.784Z,10.72
2022-11-18T08:53:34.124Z,10.02
2022-11-18T08:54:37.518Z,10.01
2022-11-18T08:55:39.720Z,8.44
2022-11-18T08:56:42.912Z,6.00
2022-11-18T08:57:47.932Z,7.05
2022-11-18T08:58:51.276Z,8.21
2022-11-18T08:59:54.493Z,7.91
2022-11-18T09:00:56.657Z,7.62
2022-11-18T09:01:59.949Z,9.17
2022-11-18T09:03:02.129Z,6.41
2022-11-18T09:04:05.535Z,4.91
2022-11-18T09:05:08.395Z,5.03
2022-11-18T09:06:13.850Z,10.50
2022-11-18T09:07:17.762Z,8.38
2022-11-18T09:08:21.870Z,11.30
2022-11-18T09:09:25.096Z,8.51
2022-11-18T09:10:27.285Z,11.32
2022-11-18T09:11:30.469Z,6.94
2022-11-18T09:12:32.627Z,9.40
2022-11-18T09:14:04.403Z,6.23
2022-11-18T09:15:16.152Z,7.59
2022-11-18T09:16:22.320Z,5.33
2022-11-18T09:17:29.623Z,4.82
2022-11-18T09:18:32.372Z,6.09
2022-11-18T09:19:50.788Z,3.42
2022-11-18T09:20:57.333Z,4.30
2022-11-18T09:22:00.526Z,5.38
2022-11-18T09:23:02.646Z,6.80
2022-11-18T09:24:06.873Z,7.30
2022-11-18T09:25:10.927Z,4.93
2022-11-18T09:26:15.757Z,4.87
2022-11-18T09:27:18.967Z,5.05
2022-11-18T09:28:21.116Z,7.77
2022-11-18T09:29:26.551Z,5.21
2022-11-18T09:30:29.783Z,6.81
2022-11-18T09:31:32.005Z,7.01
2022-11-18T09:32:35.325Z,10.08
2022-11-18T09:33:38.850Z,8.55
2022-11-18T09:34:42.048Z,5.55
2022-11-18T09:35:45.014Z,3.87
2022-11-18T09:36:48.183Z,3.38
2022-11-18T09:37:50.326Z,2.94
2022-11-18T09:38:54.408Z,3.44
2022-11-18T09:39:57.579Z,6.13
2022-11-18T09:41:12.246Z,9.22
2022-11-18T09:42:32.613Z,9.02
2022-11-18T09:43:47.984Z,5.99
2022-11-18T09:45:12.958Z,4.13
2022-11-18T09:46:27.806Z,3.97
2022-11-18T09:47:32.848Z,10.43
2022-11-18T09:48:56.533Z,10.62
2022-11-18T09:50:20.507Z,11.83
2022-11-18T09:51:31.666Z,6.15
2022-11-18T09:52:41.823Z,4.23
2022-11-18T09:53:45.967Z,5.74
2022-11-18T09:54:49.364Z,8.93
2022-11-18T09:55:53.840Z,8.17
2022-11-18T09:56:58.020Z,8.97
2022-11-18T09:58:01.303Z,5.58
2022-11-18T09:59:04.825Z,4.69
2022-11-18T10:00:18.281Z,4.13
2022-11-18T10:01:21.899Z,3.47
2022-11-18T10:02:46.433Z,3.79
2022-11-18T10:03:49.955Z,3.41
2022-11-18T10:04:54.668Z,5.68
2022-11-18T10:06:07.025Z,9.72
2022-11-18T10:07:21.826Z,8.21
2022-11-18T10:08:32.836Z,6.87
2022-11-18T10:09:41.155Z,6.26
2022-11-18T10:10:55.812Z,9.21
2022-11-18T10:12:22.539Z,6.32
2022-11-18T10:13:41.420Z,6.18
2022-11-18T10:15:07.206Z,9.49
2022-11-18T10:16:25.570Z,7.52
2022-11-18T10:17:46.536Z,6.98
2022-11-18T10:19:01.437Z,6.34
2022-11-18T10:20:26.186Z,9.06
2022-11-18T10:21:45.618Z,7.93
2022-11-18T10:22:55.578Z,7.91
2022-11-18T10:24:05.821Z,7.56
2022-11-18T10:25:15.698Z,9.68
2022-11-18T10:26:32.689Z,7.19
2022-11-18T10:27:40.577Z,4.31
2022-11-18T10:28:42.729Z,6.33
2022-11-18T10:29:53.093Z,8.96
2022-11-18T10:31:04.422Z,6.65
2022-11-18T10:32:13.181Z,4.82
2022-11-18T10:33:26.672Z,7.47
2022-11-18T10:34:29.823Z,10.07
2022-11-18T10:35:37.329Z,9.40
2022-11-18T10:36:41.772Z,10.00
2022-11-18T10:38:06.905Z,10.50
2022-11-18T10:39:09.697Z,8.93
2022-11-18T10:40:27.667Z,9.72
2022-11-18T10:41:31.025Z,7.86
2022-11-18T10:42:42.063Z,5.12
2022-11-18T10:43:50.405Z,6.09
2022-11-18T10:44:53.618Z,4.99
2022-11-18T10:45:55.802Z,5.57
2022-11-18T10:47:22.630Z,5.05
2022-11-18T10:48:25.788Z,4.00
2022-11-18T10:49:27.903Z,3.42
2022-11-18T10:50:34.827Z,2.77
2022-11-18T10:51:38.641Z,2.30
2022-11-18T10:52:54.186Z,4.18
2022-11-18T10:54:09.547Z,6.26
2022-11-18T10:55:23.283Z,7.59
2022-11-18T10:56:25.950Z,7.66
2022-11-18T10:57:37.185Z,6.16
2022-11-18T10:58:45.333Z,6.59
2022-11-18T10:59:51.058Z,6.93
2022-11-18T11:00:54.327Z,5.09
2022-11-18T11:02:09.432Z,3.77
2022-11-18T11:03:38.595Z,2.64
2022-11-18T11:04:42.081Z,3.23
2022-11-18T11:05:45.219Z,3.97
2022-11-18T11:06:48.308Z,4.54
2022-11-18T11:08:29.209Z,3.51
2022-11-18T11:09:31.353Z,3.79
2022-11-18T11:10:33.626Z,4.29
2022-11-18T11:11:40.120Z,3.85
2022-11-18T11:12:48.038Z,2.55
2022-11-18T11:13:50.489Z,3.14
2022-11-18T11:14:57.175Z,3.96
2022-11-18T11:16:06.210Z,4.10
2022-11-18T11:17:13.940Z,3.04
2022-11-18T11:18:40.658Z,2.36
2022-11-18T11:19:52.766Z,3.53
2022-11-18T11:20:55.105Z,4.64
2022-11-18T11:21:58.791Z,3.41
2022-11-18T11:23:01.118Z,3.45
2022-11-18T11:24:12.395Z,4.87
2022-11-18T11:25:19.564Z,4.60
2022-11-18T11:28:17.957Z,4.28
2022-11-18T11:29:46.993Z,3.99
2022-11-18T11:31:02.519Z,5.73
2022-11-18T11:32:17.528Z,3.36
2022-11-18T11:33:31.060Z,4.98
2022-11-18T11:34:45.310Z,3.78
2022-11-18T11:36:08.588Z,5.43
2022-11-18T11:37:26.785Z,4.01
2022-11-18T11:38:47.716Z,4.58
2022-11-18T11:40:14.161Z,5.52
2022-11-18T11:41:23.491Z,4.05
2022-11-18T11:42:40.546Z,5.10
2022-11-18T11:44:00.044Z,5.04
2022-11-18T11:45:20.082Z,4.53
2022-11-18T11:46:32.839Z,4.63
2022-11-18T11:47:49.319Z,4.36
2022-11-18T11:48:59.210Z,4.66
2022-11-18T11:50:08.100Z,4.08
2022-11-18T11:51:24.787Z,4.04
2022-11-18T11:52:40.354Z,4.25
2022-11-18T11:54:11.711Z,4.32
2022-11-18T11:55:23.911Z,4.55
2022-11-18T11:56:34.556Z,5.17
2022-11-18T11:57:49.231Z,4.02
2022-11-18T11:59:09.818Z,2.95
2022-11-18T12:00:17.636Z,4.45
2022-11-18T12:01:27.607Z,5.04
2022-11-18T12:02:54.996Z,5.67
2022-11-18T12:04:14.521Z,4.51
2022-11-18T12:05:25.308Z,4.58
2022-11-18T12:06:29.515Z,6.27
2022-11-18T12:07:43.405Z,6.66
2022-11-18T12:09:06.786Z,5.05
2022-11-18T12:10:30.275Z,4.21
2022-11-18T12:11:42.505Z,4.48
2022-11-18T12:12:55.599Z,4.56
2022-11-18T12:14:07.062Z,5.40
2022-11-18T12:15:32.989Z,4.39
2022-11-18T12:16:49.271Z,4.41
2022-11-18T12:18:05.363Z,5.17
2022-11-18T12:19:13.351Z,5.32
2022-11-18T12:20:45.391Z,5.30
2022-11-18T12:22:03.884Z,4.85
2022-11-18T12:23:17.897Z,4.99
2022-11-18T12:24:35.561Z,5.29
2022-11-18T12:25:56.534Z,4.57
2022-11-18T12:27:00.336Z,6.79
2022-11-18T12:28:03.460Z,7.32
2022-11-18T12:29:24.736Z,7.58
2022-11-18T12:30:32.383Z,7.40
2022-11-18T12:31:36.195Z,8.12
2022-11-18T12:32:43.242Z,7.73
2022-11-18T12:33:47.843Z,8.03
2022-11-18T12:34:59.617Z,8.55
2022-11-18T12:36:01.779Z,8.06
2022-11-18T12:37:38.171Z,7.51
2022-11-18T12:38:42.977Z,7.55
2022-11-18T12:39:58.406Z,8.35
2022-11-18T12:41:22.343Z,10.00
2022-11-18T12:43:03.400Z,9.71
2022-11-18T12:44:07.037Z,9.73
2022-11-18T12:45:58.820Z,11.20
2022-11-18T12:47:02.610Z,9.74
2022-11-18T12:48:05.443Z,9.96
2022-11-18T12:49:41.959Z,9.55
2022-11-18T12:50:48.768Z,9.76
2022-11-18T12:51:54.625Z,9.40
2022-11-18T12:52:56.752Z,10.46
2022-11-18T12:54:01.262Z,12.06
2022-11-18T12:55:14.926Z,11.34
2022-11-18T12:56:24.951Z,8.03
2022-11-18T12:57:31.259Z,7.37
2022-11-18T12:58:34.330Z,9.59
2022-11-18T12:59:39.072Z,9.49
2022-11-18T13:00:53.561Z,9.02
2022-11-18T13:02:20.163Z,10.07
2022-11-18T13:03:25.349Z,8.75
2022-11-18T13:04:28.487Z,8.71
2022-11-18T13:05:35.604Z,7.74
2022-11-18T13:06:40.649Z,9.55
2022-11-18T13:08:06.006Z,10.13
2022-11-18T13:09:18.705Z,10.63
2022-11-18T13:10:24.548Z,9.33
2022-11-18T13:11:46.172Z,10.50
2022-11-18T13:12:49.715Z,11.36
2022-11-18T13:14:14.937Z,11.44
2022-11-18T13:15:36.672Z,12.03
2022-11-18T13:16:57.981Z,12.35
2022-11-18T13:18:08.067Z,11.59
2022-11-18T13:19:21.844Z,12.45
2022-11-18T13:20:31.050Z,12.25
2022-11-18T13:21:52.220Z,11.70
2022-11-18T13:23:15.376Z,10.72
2022-11-18T13:24:21.956Z,9.76
2022-11-18T13:25:26.151Z,9.07
2022-11-18T13:26:31.821Z,11.13
2022-11-18T13:27:50.494Z,11.10
2022-11-18T13:29:16.916Z,11.19
2022-11-18T13:30:20.356Z,11.83
2022-11-18T13:31:36.410Z,11.16
2022-11-18T13:32:44.871Z,10.40
2022-11-18T13:33:47.098Z,10.46
2022-11-18T13:34:52.747Z,11.75
2022-11-18T13:35:55.872Z,11.16
2022-11-18T13:37:00.588Z,11.36
2022-11-18T13:38:08.073Z,14.01
2022-11-18T13:39:22.517Z,12.71
2022-11-18T13:40:28.501Z,14.08
2022-11-18T13:41:34.458Z,13.80
2022-11-18T13:42:46.011Z,13.70
2022-11-18T13:43:51.528Z,13.34
2022-11-18T13:44:58.902Z,12.59
2022-11-18T13:46:06.008Z,12.48
2022-11-18T13:47:23.284Z,11.51
2022-11-18T13:48:28.517Z,10.56
2022-11-18T13:49:49.908Z,9.85
2022-11-18T13:50:56.700Z,9.03
2022-11-18T13:51:59.227Z,7.66
2022-11-18T13:53:17.735Z,4.41
2022-11-18T13:54:26.866Z,3.67
2022-11-18T13:55:36.268Z,2.98
2022-11-18T13:56:41.336Z,2.88
2022-11-18T13:57:49.364Z,3.27
2022-11-18T13:59:17.827Z,3.36
2022-11-18T14:00:24.956Z,3.00
2022-11-18T14:01:30.301Z,2.50
2022-11-18T14:02:33.644Z,2.35
2022-11-18T14:03:49.253Z,2.31
2022-11-18T14:04:55.755Z,2.44
2022-11-18T14:05:59.692Z,2.44
2022-11-18T14:07:27.342Z,2.15
2022-11-18T14:08:32.127Z,2.02
2022-11-18T14:09:36.609Z,2.09
2022-11-18T14:10:45.499Z,2.08
2022-11-18T14:12:00.332Z,2.68
2022-11-18T14:13:26.491Z,6.30
2022-11-18T14:14:31.471Z,4.36
2022-11-18T14:15:43.222Z,8.01
2022-11-18T14:16:45.888Z,11.38
2022-11-18T14:17:56.849Z,7.31
2022-11-18T14:18:59.079Z,6.13
2022-11-18T14:20:17.075Z,13.34
2022-11-18T14:21:29.197Z,12.69
2022-11-18T14:22:32.818Z,15.13
2022-11-18T14:23:38.076Z,12.92
2022-11-18T14:24:42.483Z,11.05
2022-11-18T14:25:46.593Z,10.14
2022-11-18T14:26:49.677Z,14.68
2022-11-18T14:27:53.426Z,12.88
2022-11-18T14:28:58.567Z,12.34
2022-11-18T14:30:01.017Z,4.51
2022-11-18T14:31:07.936Z,5.11
2022-11-18T14:32:14.431Z,5.64
2022-11-18T14:33:21.463Z,5.68
2022-11-18T14:34:28.224Z,4.51
2022-11-18T14:35:33.561Z,4.02
2022-11-18T14:36:41.059Z,3.97
2022-11-18T14:37:43.313Z,6.38
2022-11-18T14:39:25.586Z,6.10
2022-11-18T14:40:15.440Z,4.58
2022-11-18T14:41:44.640Z,5.58
2022-11-18T14:42:48.303Z,5.29
2022-11-18T14:43:51.388Z,5.86
2022-11-18T14:44:54.449Z,7.07
2022-11-18T14:46:00.073Z,7.21
2022-11-18T14:47:19.520Z,5.90
2022-11-18T14:48:28.411Z,7.86
2022-11-18T14:49:36.947Z,7.77
2022-11-18T14:50:39.193Z,6.32
2022-11-18T14:51:42.359Z,7.59
2022-11-18T14:52:44.502Z,7.49
2022-11-18T14:53:47.649Z,5.72
2022-11-18T14:54:52.064Z,5.95
2022-11-18T14:56:00.670Z,7.50
2022-11-18T14:57:05.554Z,7.39
2022-11-18T14:58:15.247Z,6.31
2022-11-18T14:59:21.211Z,6.03
2022-11-18T15:00:23.360Z,5.65
2022-11-18T15:01:30.552Z,5.48
2022-11-18T15:02:33.121Z,5.59